Time;durP1;ratioP1;P1;durP2;ratioP2;P2;SDS_P1;SDS_P2;PMS_P1;PMS_P2;Temp;Humidity;BMP_temperature;BMP_pressure;BME280_temperature;BME280_humidity;BME280_pressure;Samples;Min_cycle;Max_cycle;Signal;HPM_P1;HPM_P2
2022/12/02 00:00:45;;;;;;;0.20;0.20;;;;;;;;;;5013605;28;20037;-75
2022/12/02 00:03:12;;;;;;;0.20;0.20;;;;;;;;;;4979015;28;20140;-75
2022/12/02 00:05:38;;;;;;;0.20;0.20;;;;;;;;;;4993312;28;20045;-72
2022/12/02 00:08:16;;;;;;;0.57;0.57;;;;;;;;;;4974940;28;20048;-72
2022/12/02 00:10:43;;;;;;;0.20;0.20;;;;;;;;;;4992891;28;20827;-72
2022/12/02 00:13:22;;;;;;;0.20;0.20;;;;;;;;;;4990585;28;20376;-75
2022/12/02 00:15:55;;;;;;;0.20;0.20;;;;;;;;;;4993598;28;20472;-72
2022/12/02 00:18:21;;;;;;;0.20;0.20;;;;;;;;;;4993616;28;20596;-72
2022/12/02 00:20:47;;;;;;;0.10;0.10;;;;;;;;;;4988040;28;20042;-72
2022/12/02 00:23:13;;;;;;;0.10;0.10;;;;;;;;;;4991526;28;20148;-72
2022/12/02 00:25:40;;;;;;;0.20;0.20;;;;;;;;;;4991784;28;20417;-72
2022/12/02 00:28:06;;;;;;;0.20;0.20;;;;;;;;;;4988568;28;20045;-72
2022/12/02 00:30:32;;;;;;;0.10;0.10;;;;;;;;;;4991079;28;20044;-73
2022/12/02 00:32:58;;;;;;;0.13;0.13;;;;;;;;;;4991482;28;20233;-73
2022/12/02 00:35:24;;;;;;;0.20;0.20;;;;;;;;;;4992230;28;20409;-73
2022/12/02 00:37:50;;;;;;;0.20;0.20;;;;;;;;;;4991589;28;20245;-73
2022/12/02 00:40:16;;;;;;;0.20;0.20;;;;;;;;;;4994111;28;20057;-73
2022/12/02 00:42:42;;;;;;;0.10;0.10;;;;;;;;;;4986641;28;20049;-73
2022/12/02 00:47:56;;;;;;;0.15;0.15;;;;;;;;;;4991461;28;20838;-73
2022/12/02 00:50:22;;;;;;;0.20;0.20;;;;;;;;;;4991822;28;20671;-73
2022/12/02 00:52:48;;;;;;;0.17;0.17;;;;;;;;;;4992819;28;20049;-73
2022/12/02 00:55:15;;;;;;;0.10;0.10;;;;;;;;;;4993271;28;20255;-73
2022/12/02 00:57:41;;;;;;;0.10;0.10;;;;;;;;;;4989896;28;20379;-74
2022/12/02 01:00:08;;;;;;;0.20;0.20;;;;;;;;;;4992229;28;20559;-72
2022/12/02 01:02:34;;;;;;;0.20;0.20;;;;;;;;;;4988586;28;20084;-73
2022/12/02 01:05:00;;;;;;;0.20;0.20;;;;;;;;;;4992826;28;20654;-73
2022/12/02 01:07:26;;;;;;;0.10;0.10;;;;;;;;;;4989048;28;20045;-73
2022/12/02 01:09:52;;;;;;;0.20;0.20;;;;;;;;;;4992308;28;20087;-72
2022/12/02 01:12:18;;;;;;;0.20;0.20;;;;;;;;;;4991256;28;20073;-74
2022/12/02 01:14:44;;;;;;;0.20;0.20;;;;;;;;;;4993020;28;20132;-73
2022/12/02 01:17:10;;;;;;;0.13;0.13;;;;;;;;;;4992255;28;20505;-73
2022/12/02 01:19:36;;;;;;;0.20;0.20;;;;;;;;;;4990662;28;20240;-73
2022/12/02 01:22:02;;;;;;;0.20;0.20;;;;;;;;;;4990349;28;20395;-72
2022/12/02 01:24:28;;;;;;;0.10;0.10;;;;;;;;;;4992668;28;20513;-72
2022/12/02 01:26:54;;;;;;;0.20;0.20;;;;;;;;;;4988789;28;20437;-73
2022/12/02 01:29:20;;;;;;;0.15;0.15;;;;;;;;;;4991173;28;20890;-72
2022/12/02 01:31:46;;;;;;;0.20;0.20;;;;;;;;;;4991223;28;20124;-73
2022/12/02 01:34:12;;;;;;;0.10;0.10;;;;;;;;;;4989104;28;20081;-73
2022/12/02 01:36:38;;;;;;;0.20;0.20;;;;;;;;;;4995913;28;20139;-73
2022/12/02 01:39:04;;;;;;;0.20;0.20;;;;;;;;;;5002946;28;20048;-73
2022/12/02 01:41:31;;;;;;;0.20;0.20;;;;;;;;;;4996529;28;20921;-73
2022/12/02 01:43:57;;;;;;;0.20;0.20;;;;;;;;;;4986338;28;20045;-73
2022/12/02 01:46:23;;;;;;;0.20;0.20;;;;;;;;;;4989769;28;20076;-72
2022/12/02 01:48:49;;;;;;;0.20;0.20;;;;;;;;;;5006051;28;20857;-73
2022/12/02 01:51:15;;;;;;;0.20;0.20;;;;;;;;;;4990596;28;20209;-75
2022/12/02 01:53:42;;;;;;;0.20;0.20;;;;;;;;;;4990024;28;20049;-72
2022/12/02 01:56:09;;;;;;;0.20;0.20;;;;;;;;;;4990092;28;20048;-73
2022/12/02 01:58:36;;;;;;;0.20;0.20;;;;;;;;;;4989079;28;20057;-73
2022/12/02 02:01:02;;;;;;;0.20;0.20;;;;;;;;;;4990175;28;20049;-73
2022/12/02 02:03:28;;;;;;;0.20;0.20;;;;;;;;;;4986852;28;20049;-73
2022/12/02 02:05:54;;;;;;;0.20;0.20;;;;;;;;;;4991128;28;20068;-73
2022/12/02 02:08:20;;;;;;;0.20;0.20;;;;;;;;;;4984330;28;20242;-73
2022/12/02 02:10:46;;;;;;;0.20;0.20;;;;;;;;;;4968641;28;20614;-72
2022/12/02 02:13:14;;;;;;;0.20;0.20;;;;;;;;;;4969097;28;20915;-72
2022/12/02 02:15:41;;;;;;;0.10;0.10;;;;;;;;;;4973095;28;20096;-73
2022/12/02 02:18:07;;;;;;;0.20;0.20;;;;;;;;;;4971436;28;20064;-73
2022/12/02 02:20:34;;;;;;;0.10;0.10;;;;;;;;;;4968991;28;20045;-72
2022/12/02 02:23:06;;;;;;;0.20;0.20;;;;;;;;;;4971069;28;20042;-72
2022/12/02 02:25:33;;;;;;;0.20;0.20;;;;;;;;;;4971243;28;20064;-72
2022/12/02 02:28:00;;;;;;;0.20;0.20;;;;;;;;;;4951048;28;20552;-72
2022/12/02 02:30:28;;;;;;;0.10;0.10;;;;;;;;;;4972746;28;20049;-72
2022/12/02 02:32:54;;;;;;;0.10;0.10;;;;;;;;;;4952945;28;20046;-72
2022/12/02 02:35:20;;;;;;;0.20;0.20;;;;;;;;;;4971972;28;20061;-72
2022/12/02 02:37:47;;;;;;;0.20;0.20;;;;;;;;;;4967916;28;20207;-73
2022/12/02 02:40:15;;;;;;;0.10;0.10;;;;;;;;;;4968967;28;20049;-72
2022/12/02 02:42:42;;;;;;;0.20;0.20;;;;;;;;;;4968908;28;20057;-72
2022/12/02 02:45:08;;;;;;;0.20;0.20;;;;;;;;;;4942127;28;20157;-72
2022/12/02 02:47:34;;;;;;;0.20;0.20;;;;;;;;;;4950617;28;20046;-72
2022/12/02 02:50:04;;;;;;;0.15;0.15;;;;;;;;;;4935173;28;20470;-72
2022/12/02 02:52:30;;;;;;;0.10;0.10;;;;;;;;;;4960792;28;21049;-72
2022/12/02 02:54:56;;;;;;;0.20;0.20;;;;;;;;;;4966396;28;20092;-73
2022/12/02 02:57:22;;;;;;;0.20;0.20;;;;;;;;;;4955253;28;20093;-72
2022/12/02 02:59:50;;;;;;;0.20;0.20;;;;;;;;;;4951314;28;20046;-73
2022/12/02 03:02:16;;;;;;;0.20;0.20;;;;;;;;;;4954228;28;20054;-72
2022/12/02 03:04:43;;;;;;;0.20;0.20;;;;;;;;;;4953834;28;20115;-73
2022/12/02 03:07:15;;;;;;;0.13;0.13;;;;;;;;;;4952327;28;20050;-73
2022/12/02 03:09:41;;;;;;;0.20;0.20;;;;;;;;;;4972140;28;20164;-72
2022/12/02 03:12:08;;;;;;;0.20;0.20;;;;;;;;;;4986882;28;20045;-73
2022/12/02 03:14:34;;;;;;;0.20;0.20;;;;;;;;;;4970937;28;20061;-73
2022/12/02 03:17:01;;;;;;;0.20;0.20;;;;;;;;;;4968765;28;20042;-73
2022/12/02 03:19:28;;;;;;;0.20;0.20;;;;;;;;;;4970180;28;20093;-73
2022/12/02 03:21:54;;;;;;;0.20;0.20;;;;;;;;;;4969459;28;20761;-73
2022/12/02 03:24:20;;;;;;;0.20;0.20;;;;;;;;;;4970444;28;20053;-72
2022/12/02 03:26:46;;;;;;;0.10;0.10;;;;;;;;;;4980115;28;20049;-73
2022/12/02 03:29:13;;;;;;;0.35;0.35;;;;;;;;;;4988507;28;20154;-73
2022/12/02 03:31:39;;;;;;;0.20;0.20;;;;;;;;;;4989817;28;20891;-73
2022/12/02 03:34:05;;;;;;;0.17;0.17;;;;;;;;;;4988952;28;20041;-72
2022/12/02 03:36:31;;;;;;;0.20;0.20;;;;;;;;;;4990577;28;20048;-72
2022/12/02 03:38:58;;;;;;;0.20;0.20;;;;;;;;;;4990114;28;20084;-72
2022/12/02 03:41:25;;;;;;;0.10;0.10;;;;;;;;;;4989593;28;20658;-72
2022/12/02 03:43:51;;;;;;;0.20;0.20;;;;;;;;;;4988360;28;20049;-72
2022/12/02 03:46:17;;;;;;;0.20;0.20;;;;;;;;;;4987351;28;20827;-74
2022/12/02 03:48:44;;;;;;;0.20;0.20;;;;;;;;;;4990412;28;20530;-71
2022/12/02 03:51:11;;;;;;;0.20;0.20;;;;;;;;;;4989423;28;20517;-72
2022/12/02 03:53:37;;;;;;;0.20;0.20;;;;;;;;;;4987830;28;20111;-72
2022/12/02 03:56:04;;;;;;;0.20;0.20;;;;;;;;;;4991525;28;20041;-72
2022/12/02 03:58:38;;;;;;;0.10;0.10;;;;;;;;;;4988846;28;20114;-72
2022/12/02 04:01:04;;;;;;;0.10;0.10;;;;;;;;;;4989704;28;20377;-74
2022/12/02 04:03:30;;;;;;;0.20;0.20;;;;;;;;;;4994024;28;20057;-72
2022/12/02 04:05:56;;;;;;;0.10;0.10;;;;;;;;;;4988069;28;20804;-72
2022/12/02 04:08:22;;;;;;;0.20;0.20;;;;;;;;;;4989134;28;20041;-72
2022/12/02 04:10:48;;;;;;;0.20;0.20;;;;;;;;;;4990897;28;20471;-74
2022/12/02 04:13:14;;;;;;;0.20;0.20;;;;;;;;;;4990317;28;20045;-72
2022/12/02 04:15:40;;;;;;;0.20;0.20;;;;;;;;;;4991568;28;20124;-72
2022/12/02 04:18:06;;;;;;;0.20;0.20;;;;;;;;;;4992018;28;20203;-72
2022/12/02 04:20:32;;;;;;;0.20;0.20;;;;;;;;;;4993437;28;20052;-73
2022/12/02 04:22:58;;;;;;;0.20;0.20;;;;;;;;;;4992891;28;20254;-72
2022/12/02 04:25:24;;;;;;;0.10;0.10;;;;;;;;;;4991943;28;20106;-72
2022/12/02 04:27:50;;;;;;;0.20;0.20;;;;;;;;;;4989200;28;20399;-74
2022/12/02 04:30:16;;;;;;;0.10;0.10;;;;;;;;;;4992853;28;20160;-75
2022/12/02 04:32:42;;;;;;;0.25;0.25;;;;;;;;;;4992064;28;20053;-74
2022/12/02 04:35:08;;;;;;;0.10;0.10;;;;;;;;;;4989330;28;20049;-73
2022/12/02 04:37:34;;;;;;;0.35;0.25;;;;;;;;;;4990252;28;20049;-74
2022/12/02 04:40:00;;;;;;;0.20;0.20;;;;;;;;;;5005743;28;20614;-72
2022/12/02 04:42:26;;;;;;;0.17;0.17;;;;;;;;;;4992239;28;20428;-75
2022/12/02 04:44:52;;;;;;;0.20;0.20;;;;;;;;;;4989169;28;20897;-72
2022/12/02 04:47:18;;;;;;;0.20;0.20;;;;;;;;;;4988595;28;20057;-72
2022/12/02 04:49:44;;;;;;;0.20;0.20;;;;;;;;;;4991282;28;20510;-72
2022/12/02 04:52:14;;;;;;;0.20;0.20;;;;;;;;;;5005995;28;20169;-72
2022/12/02 04:54:40;;;;;;;0.10;0.10;;;;;;;;;;4991718;28;20056;-72
2022/12/02 04:57:06;;;;;;;0.20;0.20;;;;;;;;;;4990234;28;20072;-73
2022/12/02 04:59:35;;;;;;;0.20;0.20;;;;;;;;;;5003836;28;20059;-72
2022/12/02 05:02:01;;;;;;;0.10;0.10;;;;;;;;;;4988717;28;20060;-73
2022/12/02 05:04:27;;;;;;;0.20;0.20;;;;;;;;;;4992566;28;20099;-72
2022/12/02 05:06:53;;;;;;;0.10;0.10;;;;;;;;;;4988472;28;20045;-72
2022/12/02 05:09:19;;;;;;;0.20;0.20;;;;;;;;;;4990354;28;20256;-72
2022/12/02 05:11:45;;;;;;;0.20;0.20;;;;;;;;;;4988968;28;20064;-72
2022/12/02 05:14:11;;;;;;;0.20;0.20;;;;;;;;;;4991441;28;20450;-73
2022/12/02 05:16:37;;;;;;;0.20;0.20;;;;;;;;;;4995441;28;20041;-72
2022/12/02 05:19:03;;;;;;;0.13;0.13;;;;;;;;;;4990480;28;20564;-73
2022/12/02 05:21:29;;;;;;;0.20;0.20;;;;;;;;;;4983439;28;20789;-72
2022/12/02 05:23:55;;;;;;;0.20;0.20;;;;;;;;;;4995721;28;20084;-72
2022/12/02 05:26:21;;;;;;;0.20;0.20;;;;;;;;;;4986886;28;20056;-72
2022/12/02 05:28:47;;;;;;;0.20;0.20;;;;;;;;;;4990074;28;20100;-73
2022/12/02 05:31:13;;;;;;;0.20;0.20;;;;;;;;;;4989557;28;20489;-73
2022/12/02 05:33:39;;;;;;;0.20;0.20;;;;;;;;;;4989435;28;20097;-73
2022/12/02 05:36:06;;;;;;;0.10;0.10;;;;;;;;;;4989335;28;20057;-73
2022/12/02 05:38:32;;;;;;;0.20;0.20;;;;;;;;;;5007007;28;20390;-73
2022/12/02 05:40:58;;;;;;;0.20;0.20;;;;;;;;;;4990669;28;20133;-74
2022/12/02 05:43:24;;;;;;;0.20;0.20;;;;;;;;;;4988222;28;20127;-73
2022/12/02 05:45:51;;;;;;;0.20;0.20;;;;;;;;;;4988095;28;20038;-73
2022/12/02 05:48:18;;;;;;;0.20;0.20;;;;;;;;;;4983060;28;20136;-74
2022/12/02 05:50:45;;;;;;;0.20;0.20;;;;;;;;;;5002811;28;20068;-74
2022/12/02 05:53:18;;;;;;;0.20;0.20;;;;;;;;;;4999585;28;20646;-73
2022/12/02 05:55:44;;;;;;;0.20;0.20;;;;;;;;;;4985815;28;20095;-74
2022/12/02 05:58:10;;;;;;;0.20;0.20;;;;;;;;;;4987689;28;20064;-74
2022/12/02 06:00:37;;;;;;;0.20;0.20;;;;;;;;;;4990634;28;20521;-74
2022/12/02 06:03:05;;;;;;;0.20;0.20;;;;;;;;;;4986758;28;20119;-74
2022/12/02 06:05:37;;;;;;;0.20;0.20;;;;;;;;;;4988688;28;20056;-73
2022/12/02 06:08:15;;;;;;;0.20;0.20;;;;;;;;;;4988940;28;20053;-72
2022/12/02 06:10:42;;;;;;;0.20;0.20;;;;;;;;;;5004577;28;20148;-73
2022/12/02 06:13:16;;;;;;;0.20;0.20;;;;;;;;;;5005166;28;20060;-73
2022/12/02 06:15:42;;;;;;;0.20;0.20;;;;;;;;;;4986966;28;20546;-72
2022/12/02 06:18:15;;;;;;;0.20;0.20;;;;;;;;;;4990151;28;20273;-73
2022/12/02 06:20:41;;;;;;;0.20;0.20;;;;;;;;;;4987446;28;20037;-75
2022/12/02 06:23:15;;;;;;;0.20;0.20;;;;;;;;;;4969730;28;20128;-73
2022/12/02 06:25:41;;;;;;;0.20;0.20;;;;;;;;;;4975261;28;20075;-73
2022/12/02 06:28:11;;;;;;;0.20;0.20;;;;;;;;;;4995597;28;20061;-73
2022/12/02 06:30:37;;;;;;;0.10;0.10;;;;;;;;;;4988715;28;20056;-73
2022/12/02 06:33:03;;;;;;;0.20;0.20;;;;;;;;;;4989450;28;20324;-73
2022/12/02 06:35:30;;;;;;;0.20;0.20;;;;;;;;;;4999986;28;20049;-73
2022/12/02 06:37:58;;;;;;;0.10;0.10;;;;;;;;;;5006052;28;20041;-73
2022/12/02 06:40:26;;;;;;;0.20;0.20;;;;;;;;;;4997027;28;20052;-73
2022/12/02 06:42:52;;;;;;;0.13;0.13;;;;;;;;;;5003099;28;20478;-73
2022/12/02 06:45:21;;;;;;;0.20;0.20;;;;;;;;;;4989625;28;20060;-73
2022/12/02 06:47:56;;;;;;;0.20;0.20;;;;;;;;;;4999904;28;20049;-73
2022/12/02 06:50:24;;;;;;;0.20;0.20;;;;;;;;;;4980933;28;20125;-72
2022/12/02 06:52:51;;;;;;;0.20;0.20;;;;;;;;;;4989094;28;20061;-74
2022/12/02 06:55:23;;;;;;;0.10;0.10;;;;;;;;;;4987734;28;20430;-73
2022/12/02 06:57:49;;;;;;;0.20;0.20;;;;;;;;;;4987141;28;20321;-74
2022/12/02 07:00:15;;;;;;;0.20;0.20;;;;;;;;;;4988844;28;20124;-74
2022/12/02 07:02:42;;;;;;;0.20;0.20;;;;;;;;;;5002465;28;20049;-74
2022/12/02 07:05:18;;;;;;;0.15;0.15;;;;;;;;;;4987451;28;20684;-73
2022/12/02 07:07:44;;;;;;;0.20;0.20;;;;;;;;;;4989311;28;20103;-74
2022/12/02 07:10:16;;;;;;;0.17;0.17;;;;;;;;;;4990013;28;20218;-73
2022/12/02 07:12:44;;;;;;;0.10;0.10;;;;;;;;;;4987666;28;20071;-73
2022/12/02 07:15:26;;;;;;;0.20;0.20;;;;;;;;;;4986478;28;20606;-74
2022/12/02 07:17:53;;;;;;;0.10;0.10;;;;;;;;;;5003836;28;20060;-73
2022/12/02 07:20:29;;;;;;;0.10;0.10;;;;;;;;;;4979885;28;20046;-74
2022/12/02 07:23:05;;;;;;;0.13;0.13;;;;;;;;;;5001665;28;20145;-74
2022/12/02 07:25:36;;;;;;;0.10;0.10;;;;;;;;;;4991198;28;20099;-74
2022/12/02 07:28:14;;;;;;;0.10;0.10;;;;;;;;;;4983134;28;20048;-74
2022/12/02 07:30:41;;;;;;;0.20;0.20;;;;;;;;;;5001361;28;20046;-74
2022/12/02 07:33:07;;;;;;;0.20;0.20;;;;;;;;;;5004014;28;20051;-74
2022/12/02 07:35:33;;;;;;;0.20;0.20;;;;;;;;;;5007959;28;20056;-74
2022/12/02 07:38:02;;;;;;;0.20;0.20;;;;;;;;;;4989789;28;20046;-74
2022/12/02 07:40:28;;;;;;;0.20;0.20;;;;;;;;;;4993317;28;20045;-74
2022/12/02 07:42:54;;;;;;;0.20;0.20;;;;;;;;;;4993100;28;20038;-74
2022/12/02 07:45:20;;;;;;;0.20;0.20;;;;;;;;;;4988618;28;20124;-74
2022/12/02 07:47:46;;;;;;;0.20;0.20;;;;;;;;;;4983158;28;20053;-74
2022/12/02 07:50:14;;;;;;;0.20;0.20;;;;;;;;;;4986756;28;20397;-74
2022/12/02 07:52:40;;;;;;;0.20;0.20;;;;;;;;;;4993065;28;20088;-74
2022/12/02 07:55:06;;;;;;;0.20;0.20;;;;;;;;;;4991198;28;20495;-73
2022/12/02 07:57:33;;;;;;;0.20;0.20;;;;;;;;;;4989176;28;20046;-73
2022/12/02 07:59:59;;;;;;;0.10;0.10;;;;;;;;;;4995858;28;20627;-73
2022/12/02 08:02:25;;;;;;;0.43;0.43;;;;;;;;;;5005155;28;20045;-73
2022/12/02 08:04:51;;;;;;;0.20;0.20;;;;;;;;;;5007126;28;20438;-73
2022/12/02 08:07:17;;;;;;;0.20;0.20;;;;;;;;;;5002604;28;20972;-73
2022/12/02 08:09:43;;;;;;;0.13;0.13;;;;;;;;;;4989576;28;20233;-73
2022/12/02 08:12:09;;;;;;;0.15;0.15;;;;;;;;;;4969278;28;20528;-74
2022/12/02 08:14:35;;;;;;;0.20;0.20;;;;;;;;;;4966582;28;20500;-74
2022/12/02 08:17:01;;;;;;;0.20;0.20;;;;;;;;;;4972730;28;20238;-73
2022/12/02 08:19:27;;;;;;;0.20;0.20;;;;;;;;;;4967654;28;20088;-74
2022/12/02 08:21:53;;;;;;;0.20;0.20;;;;;;;;;;4965395;28;20910;-73
2022/12/02 08:24:19;;;;;;;0.20;0.20;;;;;;;;;;4970904;28;20054;-73
2022/12/02 08:26:45;;;;;;;0.20;0.20;;;;;;;;;;4947126;28;20052;-73
2022/12/02 08:29:11;;;;;;;0.20;0.20;;;;;;;;;;4968951;28;20129;-74
2022/12/02 08:31:37;;;;;;;0.20;0.20;;;;;;;;;;4970007;28;20253;-73
2022/12/02 08:34:03;;;;;;;0.20;0.20;;;;;;;;;;4953994;28;20109;-73
2022/12/02 08:36:29;;;;;;;0.20;0.20;;;;;;;;;;4952550;28;20156;-74
2022/12/02 08:38:55;;;;;;;0.20;0.20;;;;;;;;;;4966323;28;20050;-73
2022/12/02 08:41:21;;;;;;;0.20;0.20;;;;;;;;;;4971529;28;20112;-72
2022/12/02 08:43:47;;;;;;;0.13;0.13;;;;;;;;;;4971422;28;20045;-74
2022/12/02 08:46:13;;;;;;;0.20;0.20;;;;;;;;;;4969057;28;20052;-74
2022/12/02 08:48:39;;;;;;;0.10;0.10;;;;;;;;;;4950892;28;20045;-73
2022/12/02 08:51:05;;;;;;;0.20;0.20;;;;;;;;;;4956824;28;20526;-73
2022/12/02 08:53:31;;;;;;;0.30;0.30;;;;;;;;;;4949798;28;20313;-74
2022/12/02 08:55:57;;;;;;;0.20;0.20;;;;;;;;;;4933751;28;20466;-73
2022/12/02 08:58:23;;;;;;;0.10;0.10;;;;;;;;;;4967061;28;20675;-74
2022/12/02 09:00:49;;;;;;;0.15;0.15;;;;;;;;;;4968908;28;20042;-73
2022/12/02 09:03:15;;;;;;;0.20;0.20;;;;;;;;;;4957705;28;20084;-74
2022/12/02 09:05:44;;;;;;;0.20;0.20;;;;;;;;;;4978603;28;20771;-73
2022/12/02 09:08:10;;;;;;;0.20;0.20;;;;;;;;;;4968772;28;20085;-73
2022/12/02 09:10:36;;;;;;;0.10;0.10;;;;;;;;;;4968143;28;20057;-74
2022/12/02 09:13:02;;;;;;;0.20;0.20;;;;;;;;;;4991671;28;20053;-73
2022/12/02 09:15:28;;;;;;;0.20;0.20;;;3.10;99.90;;;;;;4992901;28;20045;-74
2022/12/02 09:17:53;;;;;;;0.20;0.20;;;2.90;99.90;;;;;;4989813;28;20774;-74
2022/12/02 09:20:19;;;;;;;0.10;0.10;;;2.90;99.90;;;;;;4991154;28;20045;-73
2022/12/02 09:22:45;;;;;;;0.20;0.20;;;2.90;99.90;;;;;;4992080;28;20382;-75
2022/12/02 09:25:11;;;;;;;0.20;0.20;;;2.80;99.90;;;;;;4984450;28;20672;-73
2022/12/02 09:27:38;;;;;;;0.20;0.20;;;2.80;99.90;;;;;;4982811;28;20096;-73
2022/12/02 09:30:05;;;;;;;0.20;0.20;;;2.80;99.90;;;;;;4984137;28;20041;-73
2022/12/02 09:32:30;;;;;;;0.20;0.20;;;2.70;99.90;;;;;;4986909;28;20907;-73
2022/12/02 09:34:56;;;;;;;0.20;0.20;;;2.70;99.90;;;;;;4985471;28;20351;-74
2022/12/02 09:37:22;;;;;;;0.20;0.20;;;2.70;99.90;;;;;;4987785;28;20273;-73
2022/12/02 09:39:47;;;;;;;0.20;0.20;;;2.70;99.90;;;;;;4980407;28;20448;-74
2022/12/02 09:42:14;;;;;;;0.20;0.20;;;2.70;99.90;;;;;;4978282;28;20478;-74
2022/12/02 09:44:42;;;;;;;0.10;0.10;;;2.80;99.90;;;;;;4980145;28;20161;-74
2022/12/02 09:47:09;;;;;;;0.13;0.13;;;2.80;99.90;;;;;;4980105;28;20037;-74
2022/12/02 09:49:35;;;;;;;0.20;0.20;;;2.80;99.90;;;;;;4979988;28;20512;-75
2022/12/02 09:52:03;;;;;;;0.20;0.20;;;2.80;99.90;;;;;;4978791;28;20068;-74
2022/12/02 09:54:29;;;;;;;0.20;0.20;;;2.80;99.90;;;;;;4980672;28;20076;-74
2022/12/02 09:56:56;;;;;;;0.20;0.20;;;2.80;99.90;;;;;;4980944;28;20041;-74
2022/12/02 09:59:22;;;;;;;0.20;0.20;;;2.90;99.90;;;;;;4986119;28;20045;-74
2022/12/02 10:01:49;;;;;;;0.20;0.20;;;2.90;99.90;;;;;;4982954;28;20042;-74
2022/12/02 10:04:20;;;;;;;0.20;0.20;;;2.90;99.90;;;;;;4987695;28;20057;-74
2022/12/02 10:06:46;;;;;;;0.20;0.20;;;2.90;99.90;;;;;;4982338;28;20388;-76
2022/12/02 10:09:28;;;;;;;0.10;0.10;;;3.00;99.90;;;;;;4984207;28;20106;-74
2022/12/02 10:11:54;;;;;;;0.10;0.10;;;3.00;99.90;;;;;;4987626;28;20064;-76
2022/12/02 10:14:19;;;;;;;0.20;0.20;;;3.10;99.90;;;;;;4985954;28;20045;-72
2022/12/02 10:16:45;;;;;;;0.20;0.20;;;3.10;99.90;;;;;;4984828;28;20038;-74
2022/12/02 10:19:16;;;;;;;0.20;0.20;;;3.10;99.90;;;;;;4988171;28;20358;-73
2022/12/02 10:21:42;;;;;;;0.13;0.13;;;3.10;99.90;;;;;;4986060;28;20071;-74
2022/12/02 10:24:08;;;;;;;0.10;0.10;;;3.10;99.90;;;;;;4996834;28;20037;-73
2022/12/02 10:26:49;;;;;;;0.20;0.20;;;3.10;99.90;;;;;;4996720;28;20124;-73
2022/12/02 10:29:27;;;;;;;0.20;0.20;;;3.10;99.90;;;;;;4981398;28;20107;-75
2022/12/02 10:32:20;;;;;;;0.20;0.20;;;3.10;99.90;;;;;;4982769;28;20332;-73
2022/12/02 10:35:05;;;;;;;0.20;0.20;;;3.80;99.90;;;;;;4980652;28;20057;-75
2022/12/02 10:37:33;;;;;;;0.17;0.17;;;3.10;99.90;;;;;;5002805;28;20123;-73
2022/12/02 10:40:11;;;;;;;0.20;0.20;;;3.10;99.90;;;;;;4986859;28;20057;-74
2022/12/02 10:42:37;;;;;;;0.10;0.10;;;3.10;99.90;;;;;;4986415;28;20577;-75
2022/12/02 10:45:23;;;;;;;0.20;0.20;;;3.40;99.90;;;;;;4989365;28;20042;-73
2022/12/02 10:48:09;;;;;;;0.20;0.20;;;3.10;99.90;;;;;;4989064;28;20953;-73
2022/12/02 10:50:34;;;;;;;0.20;0.20;;;3.10;99.90;;;;;;4972008;28;20037;-73
2022/12/02 10:53:01;;;;;;;0.20;0.20;;;3.10;99.90;;;;;;4984525;28;20053;-74
2022/12/02 10:55:27;;;;;;;0.20;0.20;;;3.10;99.90;;;;;;5003053;28;20048;-73
2022/12/02 10:57:54;;;;;;;0.20;0.20;;;3.10;99.90;;;;;;4981549;28;20242;-75
2022/12/02 11:00:24;;;;;;;0.20;0.20;;;3.20;99.90;;;;;;4987288;28;20437;-73
2022/12/02 11:02:55;;;;;;;0.20;0.20;;;3.20;99.90;;;;;;4987811;28;20041;-73
2022/12/02 11:05:26;;;;;;;0.20;0.20;;;3.20;99.90;;;;;;4990331;28;20049;-73
2022/12/02 11:08:15;;;;;;;0.20;0.20;;;3.20;99.90;;;;;;4989442;28;20053;-74
2022/12/02 11:10:44;;;;;;;0.20;0.20;;;3.20;99.90;;;;;;4968066;28;20050;-74
2022/12/02 11:13:13;;;;;;;0.20;0.20;;;3.20;99.90;;;;;;5000414;28;20045;-74
2022/12/02 11:15:43;;;;;;;0.20;0.20;;;3.30;99.90;;;;;;4992834;28;20048;-73
2022/12/02 11:18:11;;;;;;;0.20;0.20;;;3.20;99.90;;;;;;4984084;28;20049;-73
2022/12/02 11:20:41;;;;;;;0.20;0.20;;;3.30;99.90;;;;;;4990226;28;20449;-73
2022/12/02 11:23:22;;;;;;;0.20;0.20;;;3.20;99.90;;;;;;4995513;28;20049;-75
2022/12/02 11:25:53;;;;;;;0.20;0.20;;;3.30;99.90;;;;;;5004706;28;20054;-73
2022/12/02 11:28:28;;;;;;;0.10;0.10;;;3.30;99.90;;;;;;4996132;28;20093;-73
2022/12/02 11:31:09;;;;;;;0.20;0.20;;;3.30;99.90;;;;;;4991141;28;20657;-73
2022/12/02 11:34:00;;;;;;;0.20;0.20;;;3.30;99.90;;;;;;4993583;28;20116;-73
2022/12/02 11:36:29;;;;;;;0.20;0.20;;;3.30;99.90;;;;;;4989624;28;20041;-72
2022/12/02 11:39:08;;;;;;;0.20;0.20;;;3.30;99.90;;;;;;4989719;28;20320;-73
2022/12/02 11:41:49;;;;;;;0.20;0.20;;;3.30;99.90;;;;;;4990182;28;20560;-73
2022/12/02 11:44:23;;;;;;;0.20;0.20;;;3.30;99.90;;;;;;4994766;28;20408;-73
2022/12/02 11:46:52;;;;;;;0.20;0.20;;;3.40;99.90;;;;;;4998854;28;20056;-73
2022/12/02 11:49:28;;;;;;;0.20;0.20;;;3.40;99.90;;;;;;4986553;28;20076;-73
2022/12/02 11:52:05;;;;;;;0.20;0.20;;;;;;;;;;4978548;28;20135;-73
2022/12/02 11:54:31;;;;;;;0.20;0.20;;;;;;;;;;4999021;28;20098;-73
2022/12/02 11:56:57;;;;;;;0.20;0.20;;;;;;;;;;4991398;28;20501;-73
2022/12/02 11:59:28;;;;;;;0.20;0.20;;;;;;;;;;4987502;28;20450;-73
2022/12/02 12:02:06;;;;;;;0.20;0.20;;;;;;;;;;4972423;28;20034;-73
2022/12/02 12:04:32;;;;;;;0.20;0.20;;;;;;;;;;4993584;28;20046;-74
2022/12/02 12:06:59;;;;;;;0.20;0.20;;;;;;;;;;4987366;28;20454;-73
2022/12/02 12:09:29;;;;;;;0.20;0.20;;;;;;;;;;4993408;28;20056;-73
2022/12/02 12:12:10;;;;;;;0.20;0.20;;;;;;;;;;4971547;28;20564;-73
2022/12/02 12:14:55;;;;;;;0.20;0.20;;;;;;;;;;4973357;28;20049;-73
2022/12/02 12:17:42;;;;;;;0.20;0.20;;;;;;;;;;4971252;28;20054;-72
2022/12/02 12:20:29;;;;;;;0.20;0.20;;;;;;;;;;4974015;28;20437;-74
2022/12/02 12:23:15;;;;;;;0.20;0.20;;;;;;;;;;4959120;28;20113;-73
2022/12/02 12:25:42;;;;;;;0.20;0.20;;;;;;;;;;4951467;28;20050;-74
2022/12/02 12:28:28;;;;;;;0.20;0.20;;;;;;;;;;4953608;28;20054;-74
2022/12/02 12:30:55;;;;;;;0.20;0.20;;;;;;;;;;4972157;28;20507;-73
2022/12/02 12:33:21;;;;;;;0.20;0.20;;;;;;;;;;4955718;28;20548;-73
2022/12/02 12:35:47;;;;;;;0.20;0.20;;;;;;;;;;4972288;28;20045;-74
2022/12/02 12:38:16;;;;;;;0.20;0.20;;;;;;;;;;4952127;28;20421;-74
2022/12/02 12:40:42;;;;;;;0.20;0.20;;;;;;;;;;4974029;28;20480;-74
2022/12/02 12:43:08;;;;;;;0.20;0.20;;;;;;;;;;4952982;28;20058;-74
2022/12/02 12:45:34;;;;;;;0.10;0.10;;;;;;;;;;4953581;28;20660;-74
2022/12/02 12:48:00;;;;;;;0.17;0.17;;;;;;;;;;4971483;28;20046;-74
2022/12/02 12:50:26;;;;;;;0.13;0.13;;;;;;;;;;4955375;28;20096;-74
2022/12/02 12:52:52;;;;;;;0.10;0.10;;;;;;;;;;4968367;28;20415;-74
2022/12/02 12:55:19;;;;;;;0.20;0.20;;;;;;;;;;4943931;28;20058;-74
2022/12/02 12:57:45;;;;;;;0.20;0.20;;;;;;;;;;4935709;28;20042;-74
2022/12/02 13:00:11;;;;;;;0.20;0.20;;;;;;;;;;4965801;28;20060;-74
2022/12/02 13:02:37;;;;;;;0.10;0.10;;;;;;;;;;4949082;28;20051;-74
2022/12/02 13:05:03;;;;;;;0.10;0.10;;;;;;;;;;4963049;28;20042;-73
2022/12/02 13:07:29;;;;;;;0.20;0.20;;;;;;;;;;4971146;28;20069;-74
2022/12/02 13:09:55;;;;;;;0.20;0.20;;;;;;;;;;4964031;28;20863;-74
2022/12/02 13:12:22;;;;;;;0.20;0.20;;;;;;;;;;4987908;28;20556;-74
2022/12/02 13:14:48;;;;;;;0.20;0.20;;;;;;;;;;4990902;28;20071;-74
2022/12/02 13:17:14;;;;;;;0.20;0.20;;;;;;;;;;4989047;28;20437;-74
2022/12/02 13:19:40;;;;;;;0.20;0.20;;;;;;;;;;4992849;28;20080;-74
2022/12/02 13:22:06;;;;;;;0.10;0.10;;;;;;;;;;4990210;28;20045;-74
2022/12/02 13:24:32;;;;;;;0.20;0.20;;;;;;;;;;4989447;28;20649;-74
2022/12/02 13:26:58;;;;;;;0.10;0.10;;;;;;;;;;4987357;28;20056;-74
2022/12/02 13:29:24;;;;;;;0.20;0.20;;;;;;;;;;4990348;28;20782;-73
2022/12/02 13:31:50;;;;;;;0.30;0.30;;;;;;;;;;4990491;28;20093;-73
2022/12/02 13:34:16;;;;;;;0.20;0.20;;;;;;;;;;4991490;28;20045;-73
2022/12/02 13:36:42;;;;;;;0.20;0.20;;;;;;;;;;4992205;28;20540;-73
2022/12/02 13:39:10;;;;;;;0.20;0.20;;;;;;;;;;4989222;28;20067;-75
2022/12/02 13:41:36;;;;;;;0.20;0.20;;;;;;;;;;5004461;28;20076;-73
2022/12/02 13:44:03;;;;;;;0.20;0.20;;;;;;;;;;4973534;28;20045;-73
2022/12/02 13:46:29;;;;;;;0.20;0.20;;;;;;;;;;4969727;28;20065;-74
2022/12/02 13:48:55;;;;;;;0.20;0.20;;;;;;;;;;4968539;28;20058;-74
2022/12/02 13:51:21;;;;;;;0.20;0.20;;;;;;;;;;4969344;28;20643;-74
2022/12/02 13:53:47;;;;;;;0.20;0.20;;;;;;;;;;4975906;28;20169;-74
2022/12/02 13:56:13;;;;;;;0.20;0.20;;;;;;;;;;4977184;28;20657;-74
2022/12/02 13:58:39;;;;;;;0.10;0.10;;;;;;;;;;4973407;28;20490;-74
2022/12/02 14:01:05;;;;;;;0.20;0.20;;;;;;;;;;4968924;28;20469;-74
2022/12/02 14:03:31;;;;;;;0.20;0.20;;;;;;;;;;4987127;28;20053;-78
2022/12/02 14:05:57;;;;;;;0.20;0.20;;;;;;;;;;4986817;28;20244;-73
2022/12/02 14:08:23;;;;;;;0.13;0.13;;;;;;;;;;4987228;28;20060;-74
2022/12/02 14:10:49;;;;;;;0.20;0.20;;;;;;;;;;4989502;28;20053;-74
2022/12/02 14:13:16;;;;;;;0.10;0.10;;;;;;;;;;5000395;28;20049;-74
2022/12/02 14:15:42;;;;;;;0.20;0.20;;;;;;;;;;4988006;28;20047;-74
2022/12/02 14:18:08;;;;;;;0.20;0.20;;;;;;;;;;4982907;28;20057;-74
2022/12/02 14:20:34;;;;;;;0.20;0.20;;;;;;;;;;4983468;28;20064;-74
2022/12/02 14:23:00;;;;;;;0.20;0.20;;;;;;;;;;4986415;28;20049;-74
2022/12/02 14:25:26;;;;;;;0.20;0.20;;;;;;;;;;4990176;28;20537;-74
2022/12/02 14:27:52;;;;;;;0.20;0.20;;;;;;;;;;4983457;28;20067;-74
2022/12/02 14:30:20;;;;;;;0.20;0.20;;;;;;;;;;4992357;28;20045;-73